Time;durP1;ratioP1;P1;durP2;ratioP2;P2;SDS_P1;SDS_P2;PMS_P1;PMS_P2;Temp;Humidity;BMP_temperature;BMP_pressure;BME280_temperature;BME280_humidity;BME280_pressure;Samples;Min_cycle;Max_cycle;Signal;HPM_P1;HPM_P2
2022/08/05 00:01:19;;;;;;;6.75;4.70;;;;;;;22.77;57.27;101422.44;5017162;28;113445;-73
2022/08/05 00:03:55;;;;;;;6.93;4.32;;;;;;;22.78;57.42;101414.22;4995882;28;113396;-74
2022/08/05 00:06:23;;;;;;;5.90;4.65;;;;;;;22.81;57.36;101418.47;5021786;28;124262;-74
2022/08/05 00:08:59;;;;;;;6.40;4.55;;;;;;;22.81;57.36;101407.66;5015867;28;123949;-75
2022/08/05 00:11:27;;;;;;;9.73;4.63;;;;;;;22.81;57.49;101402.28;5019737;28;114056;-75
2022/08/05 00:14:08;;;;;;;6.50;4.43;;;;;;;22.80;57.55;101395.19;5029308;28;114523;-74
2022/08/05 00:16:44;;;;;;;6.32;4.25;;;;;;;22.82;57.54;101395.91;5022620;28;122750;-75
2022/08/05 00:19:20;;;;;;;5.15;4.35;;;;;;;22.81;57.73;101402.28;5020231;28;124436;-74
2022/08/05 00:21:48;;;;;;;7.35;4.07;;;;;;;22.80;57.76;101401.44;5015488;27;114522;-74
2022/08/05 00:24:16;;;;;;;6.97;4.30;;;;;;;22.80;57.83;101395.19;5021216;28;114004;-75
2022/08/05 00:26:51;;;;;;;5.88;4.22;;;;;;;22.80;57.88;101389.78;5017554;28;124708;-74
2022/08/05 00:29:20;;;;;;;6.90;4.30;;;;;;;22.80;57.89;101389.78;5027042;28;123356;-74
2022/08/05 00:31:53;;;;;;;7.75;4.32;;;;;;;22.80;58.05;101392.47;5027422;28;114647;-75
2022/08/05 00:34:42;;;;;;;7.35;4.35;;;;;;;22.82;58.17;101379.69;5031070;28;114934;-75
2022/08/05 00:37:29;;;;;;;6.50;4.43;;;;;;;22.83;58.12;101389.47;5022407;28;123937;-75
2022/08/05 00:40:17;;;;;;;7.00;3.92;;;;;;;22.83;58.03;101392.19;5027251;28;123349;-75
2022/08/05 00:42:59;;;;;;;6.78;4.15;;;;;;;22.81;58.31;101399.56;5009259;28;114627;-75
2022/08/05 00:45:28;;;;;;;7.47;4.20;;;;;;;22.79;58.46;101393.44;5025869;28;115262;-75
2022/08/05 00:48:12;;;;;;;6.78;4.30;;;;;;;22.77;58.40;101400.84;5021116;28;124298;-75
2022/08/05 00:50:40;;;;;;;5.30;3.60;;;;;;;22.77;58.47;101395.44;5012751;28;123852;-75
2022/08/05 00:53:10;;;;;;;10.13;3.75;;;;;;;22.76;58.43;101382.94;5016592;28;113949;-75
2022/08/05 00:55:57;;;;;;;5.85;3.55;;;;;;;22.76;58.63;101382.94;5015275;28;114640;-75
2022/08/05 00:58:24;;;;;;;6.13;3.67;;;;;;;22.76;58.46;101388.34;5016938;28;123034;-74
2022/08/05 01:00:54;;;;;;;7.45;3.83;;;;;;;22.77;58.17;101385.47;5017785;28;124486;-75
2022/08/05 01:03:21;;;;;;;7.05;3.67;;;;;;;22.77;58.33;101390.03;5026807;28;113995;-75
2022/08/05 01:05:50;;;;;;;7.07;3.40;;;;;;;22.74;58.31;101392.00;5023022;28;114407;-75
2022/08/05 01:08:20;;;;;;;5.15;3.50;;;;;;;22.72;58.54;101388.59;5012978;28;124388;-75
2022/08/05 01:11:33;;;;;;;6.80;3.58;;;;;;;22.73;58.43;101394.84;5019405;28;123770;-75
2022/08/05 01:14:19;;;;;;;6.70;3.50;;;;;;;22.71;58.27;101376.06;5023493;28;114170;-74
2022/08/05 01:17:37;;;;;;;5.70;3.22;;;;;;;22.69;58.13;101383.47;5019498;28;113189;-75
2022/08/05 01:20:19;;;;;;;4.85;3.10;;;;;;;22.66;58.22;101383.75;5001554;28;122924;-75
2022/08/05 01:23:12;;;;;;;8.30;3.65;;;;;;;22.62;58.19;101376.03;5028727;27;122767;-74
2022/08/05 01:26:06;;;;;;;7.00;3.50;;;;;;;22.57;58.05;101389.94;5016219;28;114066;-74
2022/08/05 01:28:42;;;;;;;6.93;3.38;;;;;;;22.53;58.33;101399.31;5019596;28;113562;-75
2022/08/05 01:31:47;;;;;;;8.05;3.47;;;;;;;22.50;58.47;101407.66;5020461;28;124382;-75
2022/08/05 01:34:21;;;;;;;6.35;3.17;;;;;;;22.47;58.47;101421.41;5007254;28;122602;-75
2022/08/05 01:37:00;;;;;;;5.82;3.80;;;;;;;22.45;58.63;101426.09;5009461;28;116078;-75
2022/08/05 01:39:30;;;;;;;7.07;3.30;;;;;;;22.44;58.59;101437.91;5012211;28;114624;-74
2022/08/05 01:42:16;;;;;;;5.43;3.35;;;;;;;22.42;58.74;101439.88;5040631;27;122859;-75
2022/08/05 01:44:45;;;;;;;7.95;3.65;;;;;;;22.42;58.75;101445.28;5015240;28;123258;-75
2022/08/05 01:47:22;;;;;;;4.07;3.13;;;;;;;22.42;58.79;101461.47;5015427;28;114325;-74
2022/08/05 01:50:08;;;;;;;8.70;3.33;;;;;;;22.40;58.79;101447.25;5031970;27;115066;-75
2022/08/05 01:52:44;;;;;;;5.25;3.28;;;;;;;22.39;58.71;101456.31;5015991;28;123941;-75
2022/08/05 01:55:19;;;;;;;4.13;3.10;;;;;;;22.37;58.61;101461.00;5014722;28;124505;-74
2022/08/05 01:57:47;;;;;;;7.45;3.60;;;;;;;22.37;58.71;101467.25;5021542;28;113329;-74
2022/08/05 02:00:40;;;;;;;6.78;3.47;;;;;;;22.37;58.81;101447.50;5021784;28;113742;-75
2022/08/05 02:03:22;;;;;;;7.90;3.35;;;;;;;22.35;58.77;101443.06;5008957;28;124640;-75
2022/08/05 02:05:59;;;;;;;5.88;3.60;;;;;;;22.35;58.84;101445.78;5015303;28;123720;-74
2022/08/05 02:08:47;;;;;;;7.28;3.60;;;;;;;22.33;58.46;101469.34;5022268;28;114154;-75
2022/08/05 02:11:28;;;;;;;5.75;3.15;;;;;;;22.34;58.99;101487.25;5016488;28;114381;-75
2022/08/05 02:14:07;;;;;;;6.68;3.42;;;;;;;22.34;59.02;101481.03;4995908;28;124445;-75
2022/08/05 02:16:45;;;;;;;6.43;3.80;;;;;;;22.37;58.84;101474.50;5018315;28;123686;-75
2022/08/05 02:19:23;;;;;;;6.15;3.65;;;;;;;22.39;58.73;101461.72;5015220;28;114299;-75
2022/08/05 02:22:15;;;;;;;6.45;3.42;;;;;;;22.43;58.94;101446.97;5024504;28;113857;-75
2022/08/05 02:25:00;;;;;;;7.63;3.53;;;;;;;22.44;58.84;101440.59;5014828;28;123110;-75
2022/08/05 02:27:33;;;;;;;6.47;3.78;;;;;;;22.40;58.83;101436.44;5015030;28;123866;-74
2022/08/05 02:30:22;;;;;;;9.52;3.90;;;;;;;22.38;58.77;101430.31;5017908;28;115758;-75
2022/08/05 02:32:56;;;;;;;7.72;4.10;;;;;;;22.33;58.92;101420.75;5018379;28;115335;-74
2022/08/05 02:35:25;;;;;;;6.47;3.88;;;;;;;22.29;58.90;101419.31;5020358;28;124141;-75
2022/08/05 02:38:05;;;;;;;9.98;4.47;;;;;;;22.23;59.07;101417.13;5013472;28;124348;-75
2022/08/05 02:40:39;;;;;;;7.82;4.03;;;;;;;22.18;59.14;101438.22;5022407;27;114043;-75
2022/08/05 02:43:09;;;;;;;8.25;4.43;;;;;;;22.16;59.15;101461.78;5031568;27;112998;-75
2022/08/05 02:45:39;;;;;;;8.25;4.00;;;;;;;22.15;59.18;101455.56;5016893;28;124662;-75
2022/08/05 02:48:22;;;;;;;10.45;4.57;;;;;;;22.13;59.19;101452.13;5014632;28;123651;-74
2022/08/05 02:50:58;;;;;;;7.30;4.15;;;;;;;22.12;59.35;101433.38;5012992;28;114466;-74
2022/08/05 02:53:27;;;;;;;8.88;4.10;;;;;;;22.12;59.31;101433.38;5026641;28;113672;-74
2022/08/05 02:56:08;;;;;;;6.70;4.55;;;;;;;22.08;59.42;101432.78;5002475;28;123236;-74
2022/08/05 02:58:37;;;;;;;6.10;3.80;;;;;;;22.03;59.58;101450.31;5025207;28;127063;-74
2022/08/05 03:01:18;;;;;;;9.68;4.28;;;;;;;21.99;59.36;101465.06;5011678;28;114716;-74
2022/08/05 03:03:50;;;;;;;6.43;3.88;;;;;;;22.00;59.73;101472.16;5017456;28;113296;-74
2022/08/05 03:06:30;;;;;;;9.07;4.47;;;;;;;22.01;59.49;101458.53;5031027;27;125450;-74
2022/08/05 03:09:18;;;;;;;9.75;4.65;;;;;;;22.02;59.51;101437.81;5013455;28;124186;-74
2022/08/05 03:12:04;;;;;;;8.15;4.75;;;;;;;22.00;59.44;101434.38;5018024;28;114212;-75
2022/08/05 03:14:31;;;;;;;9.07;4.78;;;;;;;21.97;59.55;101420.19;5019264;27;113016;-74
2022/08/05 03:16:59;;;;;;;9.25;4.72;;;;;;;21.95;59.57;101400.56;5020993;28;122732;-75
2022/08/05 03:19:26;;;;;;;8.80;4.80;;;;;;;21.92;59.61;101400.81;5016313;28;124447;-74
2022/08/05 03:22:00;;;;;;;10.90;4.80;;;;;;;21.89;59.68;101401.09;4982653;28;113916;-74
2022/08/05 03:24:31;;;;;;;7.97;4.93;;;;;;;21.87;59.69;101392.28;5018374;28;114033;-75
2022/08/05 03:26:59;;;;;;;8.60;5.22;;;;;;;21.84;59.76;101403.31;5022936;28;126562;-74
2022/08/05 03:29:27;;;;;;;9.10;4.68;;;;;;;21.80;59.88;101401.88;5023720;28;123688;-75
2022/08/05 03:32:15;;;;;;;7.82;4.88;;;;;;;21.76;59.90;101406.66;5023524;28;114110;-75
2022/08/05 03:34:44;;;;;;;11.07;4.93;;;;;;;21.75;59.98;101414.88;5003262;28;113679;-75
2022/08/05 03:37:19;;;;;;;8.85;5.25;;;;;;;21.73;59.61;101422.22;5021598;28;124079;-75
2022/08/05 03:39:58;;;;;;;7.65;4.97;;;;;;;21.71;59.71;101418.81;5024379;28;124022;-74
2022/08/05 03:42:28;;;;;;;9.30;4.75;;;;;;;21.69;59.69;101416.25;5024979;28;114242;-74
2022/08/05 03:45:15;;;;;;;9.48;5.13;;;;;;;21.68;59.66;101425.31;5023070;28;114109;-74
2022/08/05 03:47:48;;;;;;;7.63;4.93;;;;;;;21.68;59.84;101425.31;5020965;28;124002;-75
2022/08/05 03:50:16;;;;;;;12.27;5.15;;;;;;;21.71;59.81;101429.59;5024777;28;122803;-75
2022/08/05 03:53:00;;;;;;;7.43;5.13;;;;;;;21.73;60.05;101433.03;5013844;28;114759;-75
2022/08/05 03:55:55;;;;;;;8.63;5.22;;;;;;;21.74;59.89;101429.34;5033852;27;114637;-74
2022/08/05 03:58:41;;;;;;;9.25;5.07;;;;;;;21.76;59.93;101438.16;5022813;28;123905;-74
2022/08/05 04:01:13;;;;;;;9.60;5.25;;;;;;;21.77;59.95;101445.25;5006548;28;124215;-74
2022/08/05 04:03:43;;;;;;;8.88;4.70;;;;;;;21.77;59.90;101439.88;5015888;28;113068;-74
2022/08/05 04:06:32;;;;;;;10.00;5.18;;;;;;;21.78;60.21;101439.75;5020689;28;114332;-74
2022/08/05 04:09:01;;;;;;;10.60;5.50;;;;;;;21.80;60.13;101439.63;5007847;28;124099;-75
2022/08/05 04:11:30;;;;;;;10.20;5.72;;;;;;;21.82;60.13;101453.81;5005246;28;123772;-75
2022/08/05 04:14:17;;;;;;;10.38;5.50;;;;;;;21.84;60.13;101451.84;5015826;28;116481;-76
2022/08/05 04:16:44;;;;;;;9.20;5.50;;;;;;;21.85;59.99;101453.59;5019426;28;115204;-76
2022/08/05 04:19:12;;;;;;;8.90;5.30;;;;;;;21.84;59.85;101441.06;5019265;28;125017;-76
2022/08/05 04:21:40;;;;;;;10.15;5.57;;;;;;;21.83;60.12;101433.97;5010247;28;124665;-76
2022/08/05 04:24:27;;;;;;;8.27;5.40;;;;;;;21.81;59.90;101432.38;5005612;28;113876;-76
2022/08/05 04:26:55;;;;;;;11.18;5.88;;;;;;;21.78;60.07;101436.19;5019850;28;114698;-76
2022/08/05 04:29:24;;;;;;;9.20;5.60;;;;;;;21.77;60.00;101439.88;5034127;27;124709;-75
2022/08/05 04:31:53;;;;;;;9.50;5.50;;;;;;;21.75;60.11;101441.84;5020596;28;124129;-75
2022/08/05 04:34:22;;;;;;;10.15;5.80;;;;;;;21.72;60.12;101452.91;5025782;28;113997;-76
2022/08/05 04:37:00;;;;;;;8.65;5.63;;;;;;;21.70;60.28;101460.22;5023440;28;113809;-75
2022/08/05 04:39:30;;;;;;;8.73;5.57;;;;;;;21.69;60.51;101461.22;5017718;28;124413;-75
2022/08/05 04:41:58;;;;;;;8.68;5.35;;;;;;;21.70;60.57;101471.00;5014296;28;124513;-75
2022/08/05 04:44:25;;;;;;;8.90;5.55;;;;;;;21.73;60.58;101476.16;5016465;28;114914;-75
2022/08/05 04:46:57;;;;;;;8.30;5.68;;;;;;;21.75;60.42;101479.59;5039683;27;113790;-75
2022/08/05 04:49:26;;;;;;;7.90;5.30;;;;;;;21.76;60.39;101476.75;5023014;27;124672;-76
2022/08/05 04:52:14;;;;;;;8.43;5.28;;;;;;;21.76;60.11;101470.53;5024549;28;124337;-75
2022/08/05 04:54:41;;;;;;;12.35;5.20;;;;;;;21.70;60.17;101461.09;5022572;28;114313;-76
2022/08/05 04:57:08;;;;;;;7.40;5.20;;;;;;;21.64;60.17;101460.72;5022647;27;113414;-75
2022/08/05 04:59:35;;;;;;;7.03;4.95;;;;;;;21.57;60.33;101471.19;5027602;28;123816;-75
2022/08/05 05:02:07;;;;;;;8.30;4.68;;;;;;;21.52;60.43;101479.63;5025559;28;123887;-75
2022/08/05 05:04:55;;;;;;;8.10;4.90;;;;;;;21.49;60.19;101479.91;5024351;28;115557;-75
2022/08/05 05:07:30;;;;;;;7.75;4.50;;;;;;;21.45;60.16;101464.94;5023514;28;114566;-75
2022/08/05 05:10:03;;;;;;;7.72;4.70;;;;;;;21.39;60.19;101462.72;5021150;28;124094;-75
2022/08/05 05:12:30;;;;;;;8.57;4.68;;;;;;;21.32;60.21;101464.19;5023724;28;124205;-75
2022/08/05 05:14:57;;;;;;;7.78;4.53;;;;;;;21.27;60.36;101458.31;5020161;28;113479;-75
2022/08/05 05:17:24;;;;;;;10.48;5.07;;;;;;;21.25;60.47;101471.03;5026064;28;114258;-75
2022/08/05 05:20:12;;;;;;;10.45;5.03;;;;;;;21.22;60.51;101465.91;5026670;28;124035;-75
2022/08/05 05:22:40;;;;;;;9.80;4.93;;;;;;;21.22;60.80;101463.22;5024749;27;123025;-75
2022/08/05 05:25:12;;;;;;;8.20;4.90;;;;;;;21.22;60.71;101461.38;5021987;28;114292;-76
2022/08/05 05:27:43;;;;;;;9.10;5.30;;;;;;;21.24;60.94;101454.03;5019331;28;114078;-75
2022/08/05 05:30:19;;;;;;;11.32;4.97;;;;;;;21.24;61.01;101458.56;5024099;28;123781;-75
2022/08/05 05:32:57;;;;;;;9.68;5.15;;;;;;;21.22;60.97;101450.59;5018046;28;123127;-75
2022/08/05 05:35:31;;;;;;;8.23;4.82;;;;;;;21.20;61.09;101458.81;5023610;28;114189;-75
2022/08/05 05:38:06;;;;;;;8.88;4.95;;;;;;;21.20;61.31;101458.81;5025858;28;113574;-75
2022/08/05 05:40:37;;;;;;;9.32;5.45;;;;;;;21.24;61.19;101472.03;5033591;28;124567;-75
2022/08/05 05:43:14;;;;;;;10.70;5.15;;;;;;;21.29;61.28;101475.22;5039064;28;125445;-75
2022/08/05 05:45:48;;;;;;;9.27;5.28;;;;;;;21.34;61.34;101481.06;5031909;28;113144;-75
2022/08/05 05:48:15;;;;;;;10.40;5.72;;;;;;;21.36;61.13;101489.91;5041620;28;114386;-75
2022/08/05 05:50:42;;;;;;;9.55;5.22;;;;;;;21.39;61.21;101485.13;5031456;28;121507;-75
2022/08/05 05:53:12;;;;;;;9.10;5.10;;;;;;;21.43;61.13;101480.34;5026971;28;124403;-75
2022/08/05 05:55:49;;;;;;;7.90;5.45;;;;;;;21.46;61.14;101480.13;5020354;28;115217;-75
2022/08/05 05:58:27;;;;;;;10.90;5.80;;;;;;;21.47;61.12;101475.59;5025984;28;114299;-75
2022/08/05 06:00:59;;;;;;;9.45;5.72;;;;;;;21.47;61.23;101481.84;5018532;28;123398;-75
2022/08/05 06:03:42;;;;;;;11.05;5.70;;;;;;;21.49;61.17;101479.91;5024362;28;123511;-75
2022/08/05 06:06:28;;;;;;;10.50;6.07;;;;;;;21.51;61.09;101477.94;5027305;28;113227;-74
2022/08/05 06:08:59;;;;;;;8.75;5.60;;;;;;;21.52;61.41;101474.25;5025774;28;114676;-75
2022/08/05 06:11:26;;;;;;;9.43;5.38;;;;;;;21.55;61.53;101483.94;5013745;28;123735;-75
2022/08/05 06:13:55;;;;;;;10.25;5.85;;;;;;;21.57;61.40;101493.59;5018979;28;123955;-75
2022/08/05 06:16:23;;;;;;;11.82;6.15;;;;;;;21.61;61.52;101498.75;5024491;28;113961;-75
2022/08/05 06:18:59;;;;;;;10.57;6.03;;;;;;;21.65;61.51;101500.22;5021502;28;113773;-75
2022/08/05 06:21:31;;;;;;;10.95;5.97;;;;;;;21.69;61.42;101501.66;5025399;28;123136;-75
2022/08/05 06:24:06;;;;;;;11.13;5.90;;;;;;;21.71;61.45;101500.53;5023503;28;123967;-75
2022/08/05 06:26:37;;;;;;;12.73;6.20;;;;;;;21.75;61.53;101501.16;5016671;28;114183;-75
2022/08/05 06:29:05;;;;;;;8.93;6.15;;;;;;;21.79;61.52;101508.00;5025340;28;114111;-75
2022/08/05 06:31:52;;;;;;;10.35;6.03;;;;;;;21.83;61.42;101504.09;5013139;28;123896;-75
2022/08/05 06:34:19;;;;;;;10.85;6.38;;;;;;;21.86;61.58;101514.63;5022546;28;123703;-75
2022/08/05 06:36:46;;;;;;;13.02;5.80;;;;;;;21.88;61.53;101520.75;5023070;28;114265;-75
2022/08/05 06:39:25;;;;;;;10.63;6.13;;;;;;;21.92;61.40;101527.59;5025813;28;113649;-75
2022/08/05 06:42:00;;;;;;;9.68;6.38;;;;;;;21.95;61.51;101523.81;5024066;27;124182;-75
2022/08/05 06:44:30;;;;;;;9.32;5.75;;;;;;;22.01;61.50;101519.75;5018730;28;123849;-75
2022/08/05 06:46:57;;;;;;;9.32;6.03;;;;;;;22.05;61.47;101518.50;5023185;28;115074;-75
2022/08/05 06:49:28;;;;;;;10.18;6.25;;;;;;;22.11;61.59;101517.97;5021214;28;114518;-75
2022/08/05 06:52:15;;;;;;;9.60;6.22;;;;;;;22.16;61.37;101518.44;5011703;28;123999;-75
2022/08/05 06:55:02;;;;;;;10.15;6.20;;;;;;;22.17;61.42;101517.50;5021643;28;124115;-75
2022/08/05 06:57:30;;;;;;;8.82;6.20;;;;;;;22.22;61.54;101515.25;5016957;28;114901;-75
2022/08/05 07:00:17;;;;;;;10.50;6.72;;;;;;;22.28;61.49;101530.97;5007143;28;113794;-75
2022/08/05 07:02:51;;;;;;;11.77;6.50;;;;;;;22.32;61.38;101537.81;5017019;28;123726;-75
2022/08/05 07:05:20;;;;;;;9.20;5.40;;;;;;;22.38;61.30;101535.56;5020889;28;124552;-75
2022/08/05 07:08:04;;;;;;;7.53;5.22;;;;;;;22.40;61.57;101533.63;5009517;28;113882;-75
2022/08/05 07:10:31;;;;;;;7.85;5.22;;;;;;;22.42;61.46;101537.91;5023073;28;113865;-75
2022/08/05 07:19:10;;;;;;;8.57;5.10;;;;;;;22.47;61.35;101542.88;5017828;28;115124;-74
2022/08/05 07:21:46;;;;;;;6.13;4.50;;;;;;;22.50;61.44;101542.66;5005038;28;113723;-74
2022/08/05 07:24:27;;;;;;;7.85;5.15;;;;;;;22.53;61.46;101551.34;4990306;28;123489;-74
2022/08/05 07:26:55;;;;;;;8.95;4.70;;;;;;;22.60;61.41;101551.66;5007950;28;124009;-74
2022/08/05 07:29:23;;;;;;;8.30;4.65;;;;;;;22.66;61.40;101566.47;5004334;28;114587;-74
2022/08/05 07:32:11;;;;;;;11.43;4.90;;;;;;;22.70;61.22;101558.00;4995790;28;114007;-74
2022/08/05 07:34:40;;;;;;;9.35;4.80;;;;;;;22.77;61.01;101562.88;4996851;28;124913;-74
2022/08/05 07:37:08;;;;;;;6.28;4.57;;;;;;;22.82;61.07;101571.44;5002041;28;123773;-74
2022/08/05 07:39:37;;;;;;;9.00;4.72;;;;;;;22.87;61.03;101574.63;5012306;27;115120;-74
2022/08/05 07:42:24;;;;;;;7.63;4.38;;;;;;;22.93;61.05;101574.09;4980235;28;114220;-74
2022/08/05 07:45:00;;;;;;;5.50;4.38;;;;;;;22.99;60.67;101573.56;5002984;28;124210;-74
2022/08/05 07:47:27;;;;;;;9.55;4.80;;;;;;;23.05;60.70;101573.06;5008028;28;123534;-74
2022/08/05 07:50:09;;;;;;;8.13;4.25;;;;;;;23.10;60.43;101570.81;4997083;28;114708;-74
2022/08/05 07:52:42;;;;;;;8.25;4.55;;;;;;;23.17;60.51;101572.97;5011472;28;113885;-73
2022/08/05 07:55:10;;;;;;;8.17;4.20;;;;;;;23.19;60.08;101574.56;5004497;28;124464;-74
2022/08/05 07:57:57;;;;;;;7.18;4.30;;;;;;;23.25;60.04;101575.88;5017303;28;122030;-74
2022/08/05 08:00:30;;;;;;;6.05;4.20;;;;;;;23.29;59.94;101574.63;5008314;28;113761;-74
2022/08/05 08:02:57;;;;;;;10.18;4.20;;;;;;;23.31;59.89;101578.88;5004864;28;113672;-74
2022/08/05 08:05:42;;;;;;;7.93;3.63;;;;;;;23.33;59.43;101587.72;5004967;28;123766;-74
2022/08/05 08:08:16;;;;;;;6.45;3.92;;;;;;;23.36;59.39;101592.03;5009138;28;123061;-74
2022/08/05 08:10:46;;;;;;;6.20;3.83;;;;;;;23.38;59.19;101592.75;4988093;28;113498;-74
2022/08/05 08:13:15;;;;;;;5.57;3.38;;;;;;;23.42;59.08;101596.88;5007207;28;113990;-74
2022/08/05 08:15:55;;;;;;;8.35;3.60;;;;;;;23.45;59.39;101593.91;5002384;28;124579;-74
2022/08/05 08:18:42;;;;;;;6.78;3.17;;;;;;;23.51;59.18;101595.22;4998314;28;123415;-74
2022/08/05 08:21:16;;;;;;;6.05;2.97;;;;;;;23.58;58.86;101600.94;5008540;28;114429;-74
2022/08/05 08:23:43;;;;;;;6.35;2.72;;;;;;;23.65;58.79;101602.09;5008200;28;112131;-74
2022/08/05 08:26:31;;;;;;;6.65;2.92;;;;;;;23.73;58.89;101607.69;4996129;28;123383;-74
2022/08/05 08:28:58;;;;;;;5.10;2.28;;;;;;;23.82;58.54;101609.59;5010528;28;124139;-75
2022/08/05 08:31:46;;;;;;;7.38;2.35;;;;;;;23.90;57.99;101609.78;5010267;28;115082;-74
2022/08/05 08:34:19;;;;;;;6.22;2.40;;;;;;;23.93;57.46;101610.50;5011136;28;115147;-74
2022/08/05 08:36:59;;;;;;;5.28;1.90;;;;;;;23.93;57.10;101619.47;4997938;28;123296;-74
2022/08/05 08:39:32;;;;;;;5.00;1.85;;;;;;;23.94;56.28;101623.03;5029132;28;122050;-74
2022/08/05 08:42:04;;;;;;;3.55;1.60;;;;;;;23.97;55.96;101628.19;5029313;27;113812;-74
2022/08/05 08:44:54;;;;;;;2.85;1.70;;;;;;;24.00;55.74;101634.16;5018707;28;114012;-74
2022/08/05 08:47:44;;;;;;;3.35;1.50;;;;;;;24.07;55.30;101645.28;4987086;28;124159;-74
2022/08/05 08:50:32;;;;;;;2.72;1.70;;;;;;;24.14;55.25;101646.44;5005721;28;123546;-74
2022/08/05 08:53:22;;;;;;;3.60;1.50;;;;;;;24.24;55.43;101649.19;5006391;28;114320;-74
2022/08/05 08:55:50;;;;;;;2.33;1.30;;;;;;;24.32;54.95;101654.78;5017275;28;117990;-74
2022/08/05 08:58:32;;;;;;;4.88;1.38;;;;;;;24.43;54.66;101656.47;5019013;28;123892;-73
2022/08/05 09:01:11;;;;;;;1.90;1.40;;;;;;;24.50;54.36;101657.63;5027534;27;126409;-74
2022/08/05 09:03:46;;;;;;;2.45;1.30;;;;;;;24.58;53.92;101660.56;5021320;28;114230;-74
2022/08/05 09:06:14;;;;;;;4.00;1.77;;;;;;;24.64;53.64;101665.41;5017865;28;114030;-74
2022/08/05 09:08:47;;;;;;;4.88;1.80;;;;;;;24.68;53.07;101666.81;5016753;28;124299;-72
2022/08/05 09:11:14;;;;;;;2.50;1.20;;;;;;;24.67;52.93;101670.50;5011300;28;124137;-72
2022/08/05 09:13:42;;;;;;;3.42;1.45;;;;;;;24.67;52.66;101675.94;5015962;28;114985;-72
2022/08/05 09:16:29;;;;;;;4.13;1.40;;;;;;;24.67;52.46;101672.38;5021564;28;116151;-72
2022/08/05 09:18:56;;;;;;;2.47;1.50;;;;;;;24.68;52.51;101666.81;5023582;28;123331;-72
2022/08/05 09:21:27;;;;;;;3.42;1.35;;;;;;;24.70;52.23;101673.97;5028964;28;123021;-72
2022/08/05 09:24:14;;;;;;;3.03;1.48;;;;;;;24.74;52.32;101678.09;5011503;28;114890;-72
2022/08/05 09:26:46;;;;;;;2.60;1.48;;;;;;;24.79;52.12;101689.34;5024223;28;117864;-73
2022/08/05 09:29:18;;;;;;;2.95;1.42;;;;;;;24.83;52.11;101685.38;5009353;28;122696;-74
2022/08/05 09:32:06;;;;;;;4.18;1.40;;;;;;;24.83;51.73;101679.97;5027197;28;124782;-74
2022/08/05 09:34:57;;;;;;;3.35;1.70;;;;;;;24.86;51.99;101690.50;5037883;27;113934;-74
2022/08/05 09:37:25;;;;;;;3.28;1.90;;;;;;;24.89;51.68;101690.22;5018632;28;113464;-74
2022/08/05 09:40:33;;;;;;;4.05;1.63;;;;;;;24.94;51.57;101693.38;5025073;28;124632;-74
2022/08/05 09:43:02;;;;;;;3.25;1.75;;;;;;;25.02;51.55;101690.78;5019460;28;123854;-74
2022/08/05 09:45:35;;;;;;;4.82;1.70;;;;;;;25.08;51.10;101693.94;5021593;28;113698;-74
2022/08/05 09:48:30;;;;;;;5.20;1.92;;;;;;;25.09;50.96;101701.94;5009200;28;113700;-74
2022/08/05 09:51:07;;;;;;;5.85;1.80;;;;;;;25.07;50.34;101703.91;5037512;27;124295;-74
2022/08/05 09:53:51;;;;;;;3.33;1.50;;;;;;;24.98;50.41;101705.63;5017260;28;124317;-74
2022/08/05 09:56:28;;;;;;;2.45;1.10;;;;;;;24.91;49.82;101707.19;5006970;28;114652;-73
2022/08/05 09:59:07;;;;;;;4.00;1.55;;;;;;;24.83;49.67;101702.50;5011645;27;113320;-73
2022/08/05 10:01:41;;;;;;;2.50;1.30;;;;;;;24.79;49.79;101708.31;5013743;28;124145;-73
2022/08/05 10:04:14;;;;;;;2.92;1.40;;;;;;;24.75;49.95;101709.59;5014307;28;124572;-73
2022/08/05 10:07:01;;;;;;;2.13;1.40;;;;;;;24.68;50.19;101718.28;5021791;28;113504;-73
2022/08/05 10:09:56;;;;;;;2.63;1.55;;;;;;;24.65;50.22;101725.84;5013394;28;113240;-73
2022/08/05 10:13:02;;;;;;;3.13;1.60;;;;;;;24.62;50.24;101727.00;5006208;28;123033;-74
2022/08/05 10:15:38;;;;;;;4.15;1.98;;;;;;;24.63;50.46;101733.25;5007762;28;123983;-73
2022/08/05 10:18:21;;;;;;;4.05;1.73;;;;;;;24.64;50.76;101722.28;5013052;28;115462;-73
2022/08/05 10:20:51;;;;;;;3.45;1.80;;;;;;;24.73;50.75;101725.13;5009115;28;114754;-73
2022/08/05 10:23:22;;;;;;;2.47;1.65;;;;;;;24.83;50.10;101724.16;4996517;28;123253;-73
2022/08/05 10:26:13;;;;;;;3.75;1.60;;;;;;;24.94;50.13;101725.91;5005644;28;123743;-73
2022/08/05 10:28:45;;;;;;;2.13;1.60;;;;;;;25.06;49.90;101730.16;5005441;28;114157;-73
2022/08/05 10:31:15;;;;;;;1.85;1.10;;;;;;;25.16;49.08;101729.31;5007706;28;113485;-73
2022/08/05 10:34:07;;;;;;;2.28;1.30;;;;;;;25.30;49.03;101723.50;4995661;28;124022;-73
2022/08/05 10:36:40;;;;;;;3.40;1.15;;;;;;;25.41;48.94;101723.34;5014865;28;123662;-73
2022/08/05 10:39:18;;;;;;;2.97;1.10;;;;;;;25.58;48.77;101723.56;5003880;28;113193;-72
2022/08/05 10:42:17;;;;;;;2.55;1.30;;;;;;;25.78;48.04;101727.09;5010432;28;113302;-71
2022/08/05 10:44:50;;;;;;;2.25;0.90;;;;;;;25.97;47.92;101728.94;5013479;28;124441;-74
2022/08/05 10:47:17;;;;;;;2.30;0.80;;;;;;;26.14;47.68;101733.56;5004395;28;123576;-74
2022/08/05 10:50:12;;;;;;;1.30;0.80;;;;;;;26.35;46.66;101732.47;5022292;28;114544;-74
2022/08/05 10:52:59;;;;;;;1.45;0.75;;;;;;;26.53;45.54;101725.22;5003488;28;113000;-73
2022/08/05 10:55:29;;;;;;;0.90;0.73;;;;;;;26.69;44.86;101734.59;4985644;28;123816;-73
2022/08/05 10:58:16;;;;;;;2.53;0.70;;;;;;;26.82;44.80;101735.06;5013568;28;123971;-73
2022/08/05 11:00:45;;;;;;;1.20;0.73;;;;;;;26.94;43.76;101733.00;5013582;28;113531;-73
2022/08/05 11:03:13;;;;;;;1.08;0.60;;;;;;;27.04;43.68;101722.06;5016539;28;113693;-73
2022/08/05 11:06:12;;;;;;;1.13;0.85;;;;;;;27.13;43.20;101732.00;5024868;27;124620;-73
2022/08/05 11:09:17;;;;;;;0.93;0.70;;;;;;;27.19;43.01;101742.25;5019768;28;124447;-73
2022/08/05 11:11:58;;;;;;;1.13;0.80;;;;;;;27.23;42.40;101743.63;5024015;28;114736;-73
2022/08/05 11:14:35;;;;;;;0.85;0.65;;;;;;;27.25;41.45;101747.09;5023884;28;114788;-73
2022/08/05 11:17:25;;;;;;;1.35;0.80;;;;;;;27.24;40.71;101750.78;5025400;28;124180;-74
2022/08/05 11:20:50;;;;;;;1.42;0.65;;;;;;;27.11;41.24;101753.06;5026515;28;124140;-73
2022/08/05 11:23:42;;;;;;;1.25;0.68;;;;;;;27.08;40.46;101750.63;5006924;28;114524;-73
2022/08/05 11:26:29;;;;;;;2.53;0.65;;;;;;;27.09;41.01;101752.38;5003162;28;113659;-74
2022/08/05 11:29:04;;;;;;;0.93;0.70;;;;;;;27.10;40.36;101748.63;5007312;28;123190;-74
2022/08/05 11:31:43;;;;;;;0.90;0.60;;;;;;;27.14;39.93;101755.44;5009453;28;122733;-74
2022/08/05 11:34:39;;;;;;;0.80;0.52;;;;;;;27.19;39.58;101759.41;4995606;28;112814;-73
2022/08/05 11:37:52;;;;;;;2.03;0.82;;;;;;;27.23;40.45;101759.09;5015959;28;114517;-73
2022/08/05 11:40:55;;;;;;;2.03;0.60;;;;;;;27.35;40.63;101763.31;5026708;28;122594;-73
2022/08/05 11:43:30;;;;;;;1.20;0.65;;;;;;;27.49;39.88;101764.63;5046867;28;124419;-73
2022/08/05 11:46:28;;;;;;;1.52;0.90;;;;;;;27.60;39.09;101767.09;5038199;28;114046;-73
2022/08/05 11:49:00;;;;;;;1.60;0.60;;;;;;;27.64;38.99;101773.94;5030760;27;112900;-74
2022/08/05 11:51:29;;;;;;;1.10;0.60;;;;;;;27.60;38.15;101778.00;5032191;28;123484;-73
2022/08/05 11:54:26;;;;;;;1.33;0.90;;;;;;;27.47;37.85;101781.13;5032970;28;124439;-74
2022/08/05 11:57:02;;;;;;;2.10;0.80;;;;;;;27.35;38.26;101785.94;4980520;28;113732;-73
2022/08/05 11:59:39;;;;;;;0.88;0.60;;;;;;;27.24;38.58;101783.44;5009147;28;114258;-74
2022/08/05 12:02:16;;;;;;;1.23;0.60;;;;;;;27.21;38.78;101783.72;5018926;28;123049;-73
2022/08/05 12:05:00;;;;;;;2.00;0.60;;;;;;;27.24;38.52;101793.44;5006929;28;124220;-73
2022/08/05 12:07:46;;;;;;;1.70;0.95;;;;;;;27.19;38.37;101791.19;5009060;28;115515;-73
2022/08/05 12:10:35;;;;;;;0.85;0.63;;;;;;;27.13;38.30;101797.28;5018654;28;114850;-73